TimeCST,TemperatureF,Dew PointF,Humidity,Sea Level PressureIn,VisibilityMPH,Wind Direction,Wind SpeedMPH,Gust SpeedMPH,PrecipitationIn,Events,Conditions,WindDirDegrees,DateUTC
12:54 AM,33.1,28.9,85,30.19,10.0,North,5.8,-,N/A,,Clear,350,2012-11-20 06:54:00
1:54 AM,35.1,28.9,78,30.19,10.0,Calm,Calm,-,N/A,,Clear,0,2012-11-20 07:54:00
2:54 AM,30.0,27.0,88,30.19,10.0,North,5.8,-,N/A,,Clear,350,2012-11-20 08:54:00
3:54 AM,30.0,26.1,85,30.20,10.0,ENE,3.5,-,N/A,,Clear,70,2012-11-20 09:54:00
4:54 AM,32.0,28.0,85,30.22,10.0,Calm,Calm,-,N/A,,Clear,0,2012-11-20 10:54:00
5:54 AM,30.0,26.1,85,30.25,10.0,Calm,Calm,-,N/A,,Clear,0,2012-11-20 11:54:00
6:54 AM,27.0,25.0,92,30.27,10.0,North,4.6,-,N/A,,Clear,350,2012-11-20 12:54:00
7:54 AM,30.0,26.1,85,30.27,8.0,Calm,Calm,-,N/A,,Clear,0,2012-11-20 13:54:00
8:54 AM,35.1,30.0,82,30.28,9.0,Calm,Calm,-,N/A,,Clear,0,2012-11-20 14:54:00
9:54 AM,41.0,32.0,70,30.27,9.0,Calm,Calm,-,N/A,,Clear,0,2012-11-20 15:54:00
10:54 AM,48.0,35.1,61,30.27,8.0,Calm,Calm,-,N/A,,Clear,0,2012-11-20 16:54:00
11:54 AM,52.0,35.1,53,30.25,7.0,Calm,Calm,-,N/A,,Clear,0,2012-11-20 17:54:00
12:54 PM,57.0,37.0,47,30.21,7.0,SSW,4.6,-,N/A,,Clear,200,2012-11-20 18:54:00
1:54 PM,61.0,34.0,36,30.19,9.0,SSW,3.5,-,N/A,,Clear,210,2012-11-20 19:54:00
2:54 PM,64.0,34.0,33,30.16,9.0,South,8.1,-,N/A,,Clear,170,2012-11-20 20:54:00
3:54 PM,62.1,33.1,34,30.15,10.0,South,8.1,-,N/A,,Clear,190,2012-11-20 21:54:00
4:54 PM,55.0,34.0,45,30.15,9.0,South,8.1,-,N/A,,Clear,190,2012-11-20 22:54:00
5:54 PM,51.1,33.1,50,30.16,10.0,South,5.8,-,N/A,,Clear,180,2012-11-20 23:54:00
6:54 PM,51.1,33.1,50,30.17,9.0,SSE,3.5,-,N/A,,Clear,150,2012-11-21 00:54:00
7:54 PM,48.9,32.0,52,30.17,10.0,SSE,4.6,-,N/A,,Clear,150,2012-11-21 01:54:00
8:54 PM,46.0,32.0,58,30.17,10.0,SE,3.5,-,N/A,,Clear,140,2012-11-21 02:54:00
9:54 PM,43.0,32.0,65,30.17,10.0,SE,4.6,-,N/A,,Clear,140,2012-11-21 03:54:00
10:54 PM,43.0,33.1,68,30.16,10.0,Calm,Calm,-,N/A,,Clear,0,2012-11-21 04:54:00
11:54 PM,39.0,33.1,79,30.14,10.0,SSE,5.8,-,N/A,,Clear,160,2012-11-21 05:54:00